Time;durP1;ratioP1;P1;durP2;ratioP2;P2;SDS_P1;SDS_P2;PMS_P1;PMS_P2;Temp;Humidity;BMP_temperature;BMP_pressure;BME280_temperature;BME280_humidity;BME280_pressure;Samples;Min_cycle;Max_cycle;Signal;HPM_P1;HPM_P2
2022/09/05 00:02:00;;;;;;;4.30;3.35;;;18.40;99.90;;;;;;4870015;29;20064;-65
2022/09/05 00:04:43;;;;;;;3.72;3.42;;;18.30;99.90;;;;;;4860145;29;20057;-66
2022/09/05 00:07:27;;;;;;;12.20;3.80;;;18.30;99.90;;;;;;4870242;29;20054;-66
2022/09/05 00:10:07;;;;;;;4.53;3.17;;;18.30;99.90;;;;;;4880932;29;20049;-66
2022/09/05 00:12:35;;;;;;;4.18;3.70;;;18.30;99.90;;;;;;4874259;29;20054;-66
2022/09/05 00:15:35;;;;;;;5.72;4.18;;;18.30;99.90;;;;;;4877973;29;20450;-66
2022/09/05 00:18:13;;;;;;;5.00;3.65;;;18.20;99.90;;;;;;4870725;29;20128;-66
2022/09/05 00:20:56;;;;;;;4.32;3.50;;;18.20;99.90;;;;;;4877173;29;20060;-66
2022/09/05 00:23:33;;;;;;;3.78;3.47;;;18.20;99.90;;;;;;4877079;29;20119;-66
2022/09/05 00:26:26;;;;;;;4.13;3.63;;;18.20;99.90;;;;;;4872867;29;20097;-66
2022/09/05 00:29:05;;;;;;;;;;;18.10;99.90;;;;;;4876227;29;20067;-66
2022/09/05 00:31:59;;;;;;;7.53;4.15;;;18.00;99.90;;;;;;4877225;29;20349;-66
2022/09/05 00:34:57;;;;;;;4.90;3.88;;;18.00;99.90;;;;;;4878502;29;20052;-66
2022/09/05 00:37:39;;;;;;;4.30;3.90;;;17.90;99.90;;;;;;4873337;29;20056;-66
2022/09/05 00:40:14;;;;;;;;;;;17.90;99.90;;;;;;4881089;29;20055;-66
2022/09/05 00:42:42;;;;;;;4.55;4.15;;;17.90;99.90;;;;;;4873677;29;19964;-66
2022/09/05 00:45:13;;;;;;;4.50;3.88;;;17.90;99.90;;;;;;4856329;29;20061;-66
2022/09/05 00:47:55;;;;;;;4.25;3.90;;;17.90;99.90;;;;;;4862126;29;20507;-66
2022/09/05 00:50:27;;;;;;;6.85;4.30;;;17.90;99.90;;;;;;4879537;29;20063;-66
2022/09/05 00:53:19;;;;;;;4.30;3.90;;;17.90;99.90;;;;;;4877079;29;20076;-66
2022/09/05 00:56:12;;;;;;;5.07;4.57;;;17.90;99.90;;;;;;4877979;29;20510;-66
2022/09/05 00:59:03;;;;;;;4.43;4.03;;;17.90;99.90;;;;;;4870804;29;20414;-66
2022/09/05 01:01:49;;;;;;;4.88;4.30;;;17.80;99.90;;;;;;4877007;29;20410;-66
2022/09/05 01:04:47;;;;;;;6.32;4.53;;;17.80;99.90;;;;;;4872863;29;20053;-66
2022/09/05 01:07:25;;;;;;;5.03;4.55;;;17.80;99.90;;;;;;4854560;29;20068;-66
2022/09/05 01:10:21;;;;;;;4.65;4.13;;;17.70;99.90;;;;;;4876650;29;20061;-66
2022/09/05 01:13:21;;;;;;;5.00;4.60;;;17.70;99.90;;;;;;4874808;29;20053;-66
2022/09/05 01:16:17;;;;;;;5.60;4.53;;;17.70;99.90;;;;;;4871944;29;20068;-66
2022/09/05 01:19:15;;;;;;;4.63;4.10;;;17.70;99.90;;;;;;4879559;29;20053;-66
2022/09/05 01:22:12;;;;;;;5.35;4.38;;;17.70;99.90;;;;;;4852575;29;20184;-66
2022/09/05 01:24:50;;;;;;;5.63;5.05;;;17.70;99.90;;;;;;4860896;29;20061;-66
2022/09/05 01:27:44;;;;;;;4.70;4.30;;;17.70;99.90;;;;;;4867739;29;20207;-66
2022/09/05 01:30:11;;;;;;;5.65;4.43;;;17.70;99.90;;;;;;4876288;29;20078;-66
2022/09/05 01:32:56;;;;;;;4.55;4.05;;;17.70;99.90;;;;;;4876486;29;20057;-66
2022/09/05 01:35:27;;;;;;;6.88;4.57;;;17.70;99.90;;;;;;4869976;29;20057;-66
2022/09/05 01:38:05;;;;;;;8.70;5.00;;;17.60;99.90;;;;;;4876634;29;20128;-66
2022/09/05 01:41:08;;;;;;;4.82;4.43;;;17.60;99.90;;;;;;4870408;29;20415;-66
2022/09/05 01:44:00;;;;;;;6.32;4.65;;;17.70;99.90;;;;;;4868662;29;20113;-66
2022/09/05 01:46:33;;;;;;;5.57;5.03;;;17.60;99.90;;;;;;4878259;29;20061;-66
2022/09/05 01:49:08;;;;;;;6.13;4.70;;;17.60;99.90;;;;;;4876936;29;20096;-66
2022/09/05 01:52:12;;;;;;;7.15;4.80;;;17.50;99.90;;;;;;4875375;29;20061;-66
2022/09/05 01:55:11;;;;;;;6.82;4.63;;;17.60;99.90;;;;;;4867777;29;20489;-66
2022/09/05 01:58:04;;;;;;;8.52;4.78;;;17.50;99.90;;;;;;4869895;29;20071;-66
2022/09/05 02:00:45;;;;;;;7.65;4.68;;;17.40;99.90;;;;;;4862149;29;20463;-66
2022/09/05 02:03:34;;;;;;;4.75;4.35;;;17.40;99.90;;;;;;4867595;29;20083;-66
2022/09/05 02:06:38;;;;;;;5.00;4.55;;;17.40;99.90;;;;;;4872733;29;20185;-66
2022/09/05 02:09:34;;;;;;;6.07;5.30;;;17.40;99.90;;;;;;4858058;29;20049;-66
2022/09/05 02:12:15;;;;;;;5.70;5.20;;;17.30;99.90;;;;;;4877539;29;20060;-66
2022/09/05 02:14:47;;;;;;;7.05;5.13;;;17.30;99.90;;;;;;4877750;29;20065;-66
2022/09/05 02:17:39;;;;;;;5.70;5.18;;;17.20;99.90;;;;;;4866173;29;20544;-66
2022/09/05 02:20:29;;;;;;;7.13;5.65;;;17.20;99.90;;;;;;4869982;29;20053;-66
2022/09/05 02:22:55;;;;;;;5.63;5.10;;;17.10;99.90;;;;;;4878692;29;20057;-66
2022/09/05 02:25:29;;;;;;;7.22;5.32;;;17.10;99.90;;;;;;4864724;29;20065;-66
2022/09/05 02:28:31;;;;;;;6.00;5.40;;;17.10;99.90;;;;;;4873317;29;20410;-66
2022/09/05 02:31:03;;;;;;;6.38;5.53;;;17.00;99.90;;;;;;4878697;29;20060;-66
2022/09/05 02:33:31;;;;;;;;;;;17.00;99.90;;;;;;4860470;29;20061;-66
2022/09/05 02:36:06;;;;;;;7.50;5.80;;;16.90;99.90;;;;;;4878664;29;19979;-66
2022/09/05 02:38:45;;;;;;;6.63;5.95;;;16.90;99.90;;;;;;4874347;29;20044;-65
2022/09/05 02:41:24;;;;;;;6.28;5.68;;;16.90;99.90;;;;;;4877520;29;20135;-66
2022/09/05 02:44:11;;;;;;;7.15;6.07;;;16.90;99.90;;;;;;4875460;29;20049;-66
2022/09/05 02:46:57;;;;;;;6.18;5.65;;;16.80;99.90;;;;;;4867990;29;20117;-67
2022/09/05 02:49:41;;;;;;;6.97;6.28;;;16.80;99.90;;;;;;4843637;29;20057;-66
2022/09/05 02:52:09;;;;;;;5.90;5.30;;;16.80;99.90;;;;;;4876551;29;20061;-66
2022/09/05 02:54:47;;;;;;;6.78;6.10;;;16.70;99.90;;;;;;4877028;29;20057;-66
2022/09/05 02:57:28;;;;;;;7.30;6.60;;;16.70;99.90;;;;;;4877660;29;20084;-66
2022/09/05 03:00:03;;;;;;;7.72;6.47;;;16.70;99.90;;;;;;4850250;29;20057;-66
2022/09/05 03:02:40;;;;;;;7.05;6.00;;;16.70;99.90;;;;;;4868185;29;20057;-66
2022/09/05 03:05:36;;;;;;;6.75;5.90;;;16.60;99.90;;;;;;4876381;29;20064;-66
2022/09/05 03:08:19;;;;;;;9.68;6.25;;;16.60;99.90;;;;;;4873219;29;20419;-66
2022/09/05 03:11:20;;;;;;;7.38;6.28;;;16.60;99.90;;;;;;4869188;29;20068;-66
2022/09/05 03:13:57;;;;;;;6.82;6.25;;;16.60;99.90;;;;;;4864798;29;20080;-66
2022/09/05 03:16:36;;;;;;;6.93;6.22;;;16.50;99.90;;;;;;4843189;29;20058;-66
2022/09/05 03:19:46;;;;;;;7.22;6.45;;;16.50;99.90;;;;;;4871357;29;20512;-66
2022/09/05 03:22:36;;;;;;;7.75;6.18;;;16.50;99.90;;;;;;4804043;29;20111;-66
2022/09/05 03:25:24;;;;;;;13.32;6.68;;;16.40;99.90;;;;;;4867310;29;20061;-66
2022/09/05 03:28:31;;;;;;;6.72;6.13;;;16.40;99.90;;;;;;4876705;29;20061;-66
2022/09/05 03:31:28;;;;;;;7.85;6.68;;;16.40;99.90;;;;;;4871828;29;20057;-66
2022/09/05 03:34:17;;;;;;;11.57;6.88;;;16.30;99.90;;;;;;4876923;29;20045;-66
2022/09/05 03:37:04;;;;;;;7.07;6.40;;;16.30;99.90;;;;;;4864886;29;20101;-66
2022/09/05 03:39:32;;;;;;;7.07;6.22;;;16.30;99.90;;;;;;4872447;29;20152;-66
2022/09/05 03:42:19;;;;;;;6.88;6.30;;;16.30;99.90;;;;;;4877999;29;20056;-66
2022/09/05 03:44:58;;;;;;;7.50;6.80;;;16.20;99.90;;;;;;4876755;29;20050;-66
2022/09/05 03:48:00;;;;;;;7.43;6.72;;;16.20;99.90;;;;;;4877582;29;20148;-66
2022/09/05 03:50:36;;;;;;;7.70;6.90;;;16.20;99.90;;;;;;4859768;29;20049;-66
2022/09/05 03:53:41;;;;;;;7.13;6.43;;;16.20;99.90;;;;;;4874347;29;20065;-66
2022/09/05 03:56:47;;;;;;;7.72;6.80;;;16.20;99.90;;;;;;4878123;29;20404;-65
2022/09/05 03:59:46;;;;;;;6.93;6.30;;;16.20;99.90;;;;;;4847792;29;20057;-65
2022/09/05 04:02:16;;;;;;;8.23;6.82;;;16.10;99.90;;;;;;4872064;29;20084;-65
2022/09/05 04:04:48;;;;;;;8.20;6.78;;;16.10;99.90;;;;;;4872203;29;20096;-65
2022/09/05 04:07:19;;;;;;;;;;;15.80;99.90;;;;;;4857197;29;20390;-66
2022/09/05 04:09:57;;;;;;;7.22;6.53;;;16.00;99.90;;;;;;4879994;29;19930;-66
2022/09/05 04:13:01;;;;;;;8.02;7.32;;;16.00;99.90;;;;;;4864664;29;20049;-66
2022/09/05 04:15:41;;;;;;;7.38;6.78;;;16.00;99.90;;;;;;4783608;29;20051;-66
2022/09/05 04:18:18;;;;;;;7.75;6.85;;;16.00;99.90;;;;;;4860841;29;20045;-66
2022/09/05 04:20:50;;;;;;;8.48;7.53;;;16.00;99.90;;;;;;4881075;29;20212;-64
2022/09/05 04:23:44;;;;;;;10.77;7.85;;;15.90;99.90;;;;;;4871410;29;20053;-65
2022/09/05 04:26:45;;;;;;;9.60;7.90;;;16.00;99.90;;;;;;4880921;29;20190;-65
2022/09/05 04:29:48;;;;;;;10.35;7.72;;;15.90;99.90;;;;;;4878489;29;20045;-65
2022/09/05 04:32:45;;;;;;;11.80;8.05;;;15.90;99.90;;;;;;4864358;29;20379;-65
2022/09/05 04:35:44;;;;;;;8.07;7.28;;;15.80;99.90;;;;;;4877933;29;20132;-65
2022/09/05 04:38:32;;;;;;;8.52;7.78;;;15.80;99.90;;;;;;4861023;29;20624;-65
2022/09/05 04:41:03;;;;;;;9.25;7.88;;;15.80;99.90;;;;;;4876628;29;20053;-65
2022/09/05 04:43:28;;;;;;;8.45;7.60;;;15.70;99.90;;;;;;4880951;29;20414;-65
2022/09/05 04:46:00;;;;;;;9.20;8.30;;;15.70;99.90;;;;;;4860513;29;20061;-65
2022/09/05 04:48:34;;;;;;;8.93;8.13;;;15.70;99.90;;;;;;4864082;29;20109;-65
2022/09/05 04:51:09;;;;;;;8.73;7.82;;;15.70;99.90;;;;;;4878509;29;20302;-66
2022/09/05 04:54:06;;;;;;;9.20;8.27;;;15.70;99.90;;;;;;4846482;29;20105;-66
2022/09/05 04:56:40;;;;;;;8.40;7.60;;;15.70;99.90;;;;;;4874293;29;20131;-65
2022/09/05 04:59:21;;;;;;;8.93;8.13;;;15.70;99.90;;;;;;4867397;29;20064;-65
2022/09/05 05:01:53;;;;;;;8.55;7.85;;;15.70;99.90;;;;;;4845955;29;20495;-65
2022/09/05 05:04:22;;;;;;;;;;;15.60;99.90;;;;;;4878007;29;20053;-66
2022/09/05 05:07:01;;;;;;;8.13;7.30;;;15.60;99.90;;;;;;4863897;29;20006;-65
2022/09/05 05:09:43;;;;;;;9.30;8.35;;;15.60;99.90;;;;;;4862852;29;20053;-65
2022/09/05 05:12:40;;;;;;;8.77;7.82;;;15.60;99.90;;;;;;4873376;29;20144;-65
2022/09/05 05:15:16;;;;;;;8.57;7.78;;;15.60;99.90;;;;;;4806788;29;20089;-65
2022/09/05 05:18:17;;;;;;;8.57;7.88;;;15.60;99.90;;;;;;4858936;29;20045;-65
2022/09/05 05:20:55;;;;;;;10.07;9.10;;;15.60;99.90;;;;;;4878378;29;20065;-66
2022/09/05 05:23:54;;;;;;;10.02;8.55;;;15.60;99.90;;;;;;4858651;29;20045;-65
2022/09/05 05:26:26;;;;;;;11.23;8.32;;;15.70;99.90;;;;;;4869300;29;20053;-65
2022/09/05 05:29:14;;;;;;;14.10;8.02;;;15.70;99.90;;;;;;4869102;29;20068;-64
2022/09/05 05:32:06;;;;;;;11.75;9.10;;;15.70;99.90;;;;;;4871272;29;20065;-65
2022/09/05 05:34:41;;;;;;;9.43;8.32;;;15.70;99.90;;;;;;4859926;29;20059;-65
2022/09/05 05:37:31;;;;;;;10.05;8.23;;;15.70;99.90;;;;;;4878796;29;20053;-66
2022/09/05 05:40:14;;;;;;;18.73;9.52;;;15.80;99.90;;;;;;4876377;29;20041;-65
2022/09/05 05:42:41;;;;;;;16.33;9.65;;;15.80;99.90;;;;;;4877483;29;20080;-65
2022/09/05 05:45:29;;;;;;;16.50;9.77;;;15.90;99.90;;;;;;4879630;29;20087;-65
2022/09/05 05:48:02;;;;;;;11.93;9.27;;;15.90;99.90;;;;;;4873032;29;20069;-65
2022/09/05 05:50:48;;;;;;;11.13;9.23;;;15.90;99.90;;;;;;4871129;29;20440;-65
2022/09/05 05:53:30;;;;;;;14.30;9.00;;;16.00;99.90;;;;;;4844327;29;20064;-65
2022/09/05 05:56:17;;;;;;;11.30;8.73;;;16.10;99.90;;;;;;4860886;29;20522;-65
2022/09/05 05:59:02;;;;;;;11.27;8.63;;;16.10;99.90;;;;;;4869501;29;20060;-65
2022/09/05 06:01:46;;;;;;;12.48;8.57;;;16.10;99.90;;;;;;4880013;29;20065;-66
2022/09/05 06:04:42;;;;;;;10.35;8.73;;;16.10;99.90;;;;;;4874730;29;20049;-66
2022/09/05 06:07:28;;;;;;;10.20;8.18;;;16.20;99.90;;;;;;4868950;29;20100;-67
2022/09/05 06:10:16;;;;;;;11.65;9.05;;;16.20;99.90;;;;;;4853227;29;20057;-66
2022/09/05 06:12:51;;;;;;;10.95;9.57;;;16.30;99.90;;;;;;4858620;29;20057;-66
2022/09/05 06:15:40;;;;;;;10.05;9.02;;;16.40;99.90;;;;;;4879426;29;20064;-66
2022/09/05 06:18:50;;;;;;;11.55;8.90;;;16.50;99.90;;;;;;4879470;29;20065;-66
2022/09/05 06:21:50;;;;;;;9.77;8.85;;;16.60;99.90;;;;;;4879108;29;20199;-66
2022/09/05 06:24:25;;;;;;;9.57;8.52;;;16.80;99.90;;;;;;4862748;29;20109;-66
2022/09/05 06:26:59;;;;;;;13.23;9.23;;;16.90;99.90;;;;;;4870093;29;20106;-66
2022/09/05 06:30:00;;;;;;;10.38;8.57;;;17.00;99.90;;;;;;4861320;29;20498;-66
2022/09/05 06:33:06;;;;;;;13.93;9.32;;;17.10;99.90;;;;;;4870593;29;20061;-66
2022/09/05 06:36:10;;;;;;;9.45;8.43;;;17.30;99.90;;;;;;4880096;29;20386;-67
2022/09/05 06:38:57;;;;;;;11.07;8.68;;;17.50;99.90;;;;;;4862059;29;20494;-66
2022/09/05 06:41:37;;;;;;;9.30;8.30;;;17.60;99.90;;;;;;4877643;29;20060;-67
2022/09/05 06:44:24;;;;;;;9.18;8.38;;;17.70;99.90;;;;;;4852207;29;20442;-66
2022/09/05 06:46:56;;;;;;;9.40;8.43;;;17.90;99.90;;;;;;4860413;29;20132;-67
2022/09/05 06:49:37;;;;;;;10.57;8.10;;;18.10;99.90;;;;;;4876203;29;20502;-67
2022/09/05 06:52:36;;;;;;;10.18;8.25;;;18.20;99.90;;;;;;4878119;29;20067;-65
2022/09/05 06:55:17;;;;;;;8.65;7.75;;;18.40;99.90;;;;;;4862467;29;20065;-66
2022/09/05 06:58:08;;;;;;;8.48;7.68;;;18.60;99.90;;;;;;4875437;29;20080;-66
2022/09/05 07:00:46;;;;;;;9.63;7.15;;;18.70;99.90;;;;;;4859445;29;20057;-65
2022/09/05 07:03:31;;;;;;;8.60;7.80;;;18.90;99.90;;;;;;4869039;29;20061;-66
2022/09/05 07:06:15;;;;;;;8.32;7.63;;;19.00;99.90;;;;;;4869897;29;20113;-66
2022/09/05 07:09:09;;;;;;;8.48;7.60;;;19.10;99.90;;;;;;4878228;29;20061;-67
2022/09/05 07:11:49;;;;;;;8.10;7.40;;;19.20;99.90;;;;;;4878814;29;20109;-67
2022/09/05 07:14:25;;;;;;;8.45;7.65;;;19.40;99.90;;;;;;4862426;29;20459;-66
2022/09/05 07:16:53;;;;;;;8.68;7.82;;;19.60;99.90;;;;;;4860496;29;20057;-66
2022/09/05 07:19:32;;;;;;;8.52;7.38;;;19.70;99.90;;;;;;4863797;29;20096;-66
2022/09/05 07:22:35;;;;;;;6.95;6.25;;;19.80;99.90;;;;;;4868236;29;20042;-66
2022/09/05 07:25:14;;;;;;;8.20;7.35;;;19.90;99.90;;;;;;4869504;29;20108;-66
2022/09/05 07:27:51;;;;;;;7.78;7.03;;;20.00;99.90;;;;;;4865978;29;20061;-66
2022/09/05 07:30:18;;;;;;;9.55;7.30;;;20.10;99.90;;;;;;4878990;29;20069;-66
2022/09/05 07:32:49;;;;;;;7.75;6.53;;;20.20;99.90;;;;;;4878604;29;20052;-66
2022/09/05 07:35:29;;;;;;;7.77;7.17;;;20.40;99.90;;;;;;4870507;29;20049;-66
2022/09/05 07:38:20;;;;;;;7.28;6.68;;;20.50;99.90;;;;;;4851000;29;20058;-66
2022/09/05 07:40:59;;;;;;;7.00;6.20;;;20.60;99.90;;;;;;4863636;29;20058;-66
2022/09/05 07:43:31;;;;;;;7.60;6.90;;;20.70;99.90;;;;;;4865434;29;20050;-66
2022/09/05 07:46:00;;;;;;;7.65;6.95;;;20.80;99.90;;;;;;4847101;29;20064;-66
2022/09/05 07:48:34;;;;;;;7.82;7.07;;;21.00;99.90;;;;;;4863423;29;20065;-66
2022/09/05 07:51:03;;;;;;;7.43;6.72;;;21.10;99.90;;;;;;4847412;29;20534;-67
2022/09/05 07:53:29;;;;;;;7.50;6.80;;;21.30;99.90;;;;;;4846383;29;20068;-67
2022/09/05 07:55:57;;;;;;;7.10;6.50;;;21.40;99.90;;;;;;4863518;29;20084;-66
2022/09/05 07:58:38;;;;;;;10.63;7.18;;;21.50;99.90;;;;;;4847202;29;20407;-64
2022/09/05 08:01:04;;;;;;;7.72;6.88;;;21.60;99.90;;;;;;4863530;29;20199;-64
2022/09/05 08:03:30;;;;;;;6.93;6.28;;;21.80;99.90;;;;;;4863470;29;20064;-66
2022/09/05 08:06:00;;;;;;;8.73;6.20;;;21.90;99.90;;;;;;4846832;29;20053;-66
2022/09/05 08:08:37;;;;;;;6.32;5.72;;;22.10;99.90;;;;;;4846546;29;20061;-65
2022/09/05 08:11:12;;;;;;;6.95;6.32;;;22.20;99.90;;;;;;4869427;29;20173;-65
2022/09/05 08:13:41;;;;;;;7.00;6.25;;;22.30;99.90;;;;;;4873134;29;20336;-65
2022/09/05 08:16:10;;;;;;;7.35;5.78;;;22.30;99.90;;;;;;4857130;29;20060;-64
2022/09/05 08:18:51;;;;;;;6.63;5.35;;;22.40;99.90;;;;;;4881828;29;20433;-66
2022/09/05 08:21:26;;;;;;;6.05;5.45;;;22.60;99.90;;;;;;4881231;29;20057;-67
2022/09/05 08:23:57;;;;;;;7.30;6.28;;;22.60;99.90;;;;;;4849462;29;20204;-66
2022/09/05 08:26:45;;;;;;;7.13;5.82;;;22.80;99.90;;;;;;4880047;29;20068;-65
2022/09/05 08:29:30;;;;;;;6.45;5.63;;;22.80;99.90;;;;;;4861935;29;20530;-66
2022/09/05 08:32:12;;;;;;;5.63;5.10;;;22.90;99.90;;;;;;4875429;29;20508;-66
2022/09/05 08:34:50;;;;;;;;;;;23.00;99.90;;;;;;4885594;29;20124;-66
2022/09/05 08:37:21;;;;;;;6.35;5.60;;;23.10;99.90;;;;;;4872606;29;19931;-66
2022/09/05 08:39:51;;;;;;;7.45;5.72;;;23.20;99.90;;;;;;4883417;29;20068;-66
2022/09/05 08:43:02;;;;;;;6.20;5.10;;;23.40;99.90;;;;;;4881080;29;20056;-67
2022/09/05 08:46:05;;;;;;;5.35;4.82;;;23.60;99.90;;;;;;4822702;29;20134;-64
2022/09/05 08:48:45;;;;;;;5.38;4.88;;;23.70;99.90;;;;;;4823343;29;20142;-65
2022/09/05 08:51:48;;;;;;;5.45;5.00;;;23.80;99.90;;;;;;4858128;29;20378;-64
2022/09/05 08:54:21;;;;;;;6.18;5.55;;;23.90;99.90;;;;;;4858241;29;20053;-65
2022/09/05 08:56:56;;;;;;;5.63;4.93;;;24.00;99.90;;;;;;4873039;29;20490;-65
2022/09/05 08:59:25;;;;;;;5.80;5.30;;;24.10;99.90;;;;;;4872384;29;20359;-65
2022/09/05 09:01:51;;;;;;;5.15;4.45;;;24.20;99.90;;;;;;4871392;29;20189;-66
2022/09/05 09:04:31;;;;;;;5.43;5.03;;;24.40;99.90;;;;;;4871192;29;20503;-66
2022/09/05 09:07:09;;;;;;;8.02;5.10;;;24.50;99.90;;;;;;4872897;29;20056;-65
2022/09/05 09:09:59;;;;;;;5.80;5.30;;;24.50;99.90;;;;;;4871595;29;20155;-65
2022/09/05 09:13:01;;;;;;;5.82;5.00;;;24.70;99.90;;;;;;4869894;29;20064;-66
2022/09/05 09:15:43;;;;;;;5.30;4.80;;;24.80;99.90;;;;;;4871399;29;20088;-67
2022/09/05 09:18:16;;;;;;;5.18;4.78;;;24.90;99.90;;;;;;4869466;29;20049;-68
2022/09/05 09:20:55;;;;;;;4.70;4.30;;;25.00;99.90;;;;;;4872731;29;20048;-67
2022/09/05 09:23:43;;;;;;;4.75;4.45;;;25.30;99.90;;;;;;4879697;29;20051;-67
2022/09/05 09:26:12;;;;;;;5.30;4.50;;;25.40;99.90;;;;;;4861790;29;20049;-67
2022/09/05 09:28:42;;;;;;;5.65;4.60;;;25.50;99.20;;;;;;4861738;29;20053;-66
2022/09/05 09:31:45;;;;;;;7.57;4.05;;;25.60;98.10;;;;;;4861920;29;20451;-68
2022/09/05 09:34:34;;;;;;;4.32;4.00;;;25.70;98.30;;;;;;4861519;29;20060;-67
2022/09/05 09:37:18;;;;;;;6.57;4.35;;;25.70;97.20;;;;;;4861173;29;20058;-67
2022/09/05 09:40:07;;;;;;;9.00;4.13;;;25.90;96.60;;;;;;4874309;29;20088;-66
2022/09/05 09:43:01;;;;;;;5.15;4.10;;;25.90;95.90;;;;;;4879663;29;20061;-66
2022/09/05 09:45:54;;;;;;;7.97;4.30;;;26.00;94.90;;;;;;4869030;29;20140;-66
2022/09/05 09:48:38;;;;;;;5.90;3.83;;;26.20;95.80;;;;;;4861037;29;20057;-66
2022/09/05 09:51:25;;;;;;;5.95;4.10;;;26.30;95.60;;;;;;4861223;29;20065;-66
2022/09/05 09:54:17;;;;;;;6.63;4.00;;;26.40;94.80;;;;;;4851313;29;20060;-67
2022/09/05 09:56:59;;;;;;;3.90;3.60;;;26.50;94.40;;;;;;4863417;29;20064;-66
2022/09/05 09:59:39;;;;;;;;;;;26.70;94.20;;;;;;4880477;29;20079;-67
2022/09/05 10:02:21;;;;;;;4.53;3.88;;;26.70;92.40;;;;;;4879233;29;20409;-67
2022/09/05 10:05:07;;;;;;;4.13;3.67;;;26.90;92.80;;;;;;4864876;29;20049;-66
2022/09/05 10:07:52;;;;;;;4.35;3.60;;;27.00;93.00;;;;;;4862778;29;20106;-67
2022/09/05 10:10:45;;;;;;;5.68;3.60;;;27.10;91.70;;;;;;4879346;29;20089;-67
2022/09/05 10:13:22;;;;;;;4.97;3.60;;;27.20;91.10;;;;;;4879573;29;20065;-66
2022/09/05 10:16:10;;;;;;;7.72;3.45;;;27.20;90.50;;;;;;4876767;29;20067;-68
2022/09/05 10:18:41;;;;;;;4.47;3.10;;;27.20;90.40;;;;;;4878426;29;20068;-66
2022/09/05 10:21:33;;;;;;;;;;;27.40;90.20;;;;;;4847228;29;20054;-66
2022/09/05 10:24:23;;;;;;;3.38;3.17;;;27.40;85.30;;;;;;4855821;29;19924;-66
2022/09/05 10:27:04;;;;;;;5.10;3.38;;;27.40;86.90;;;;;;4849838;29;20435;-66
2022/09/05 10:29:59;;;;;;;3.80;3.38;;;27.40;85.10;;;;;;4876291;29;20056;-66
2022/09/05 10:32:40;;;;;;;3.83;3.53;;;27.50;86.00;;;;;;4878966;29;20502;-66
2022/09/05 10:35:12;;;;;;;3.72;3.42;;;27.60;85.30;;;;;;4861153;29;20076;-66
2022/09/05 10:37:48;;;;;;;5.13;3.60;;;27.60;85.60;;;;;;4862641;29;20086;-66
2022/09/05 10:40:20;;;;;;;4.35;3.60;;;27.70;83.50;;;;;;4871520;29;20509;-67
2022/09/05 10:42:52;;;;;;;4.18;3.38;;;27.80;81.80;;;;;;4839363;29;20045;-67
2022/09/05 10:45:29;;;;;;;5.15;3.42;;;27.80;81.50;;;;;;4872756;29;20376;-67
2022/09/05 10:48:09;;;;;;;4.20;3.20;;;27.90;82.10;;;;;;4837075;29;20099;-66
2022/09/05 10:50:44;;;;;;;4.70;3.60;;;27.90;80.20;;;;;;4860310;29;20068;-66
2022/09/05 10:53:40;;;;;;;7.28;3.90;;;28.00;81.40;;;;;;4834687;29;20053;-67
2022/09/05 10:56:21;;;;;;;4.80;3.40;;;28.10;79.40;;;;;;4833297;29;20088;-66
2022/09/05 10:59:00;;;;;;;3.88;3.47;;;28.10;79.30;;;;;;4860061;29;20061;-67
2022/09/05 11:01:31;;;;;;;5.22;3.35;;;28.20;78.20;;;;;;4855025;29;20396;-66
2022/09/05 11:04:27;;;;;;;5.70;3.20;;;28.20;77.90;;;;;;4852758;29;20130;-67
2022/09/05 11:07:13;;;;;;;5.88;3.20;;;28.30;75.30;;;;;;4850091;29;20089;-66
2022/09/05 11:09:44;;;;;;;3.30;3.00;;;28.30;75.50;;;;;;4859916;29;20547;-67
2022/09/05 11:12:30;;;;;;;3.13;2.80;;;28.40;75.80;;;;;;4846039;29;20065;-67
2022/09/05 11:15:04;;;;;;;2.85;2.60;;;28.40;75.20;;;;;;4843280;29;20146;-68
2022/09/05 11:17:43;;;;;;;5.43;2.55;;;28.40;74.80;;;;;;4860312;29;20068;-67
2022/09/05 11:20:33;;;;;;;2.40;2.20;;;28.50;74.10;;;;;;4864265;29;20057;-67
2022/09/05 11:23:16;;;;;;;2.63;2.08;;;28.60;74.10;;;;;;4859301;29;20065;-67
2022/09/05 11:25:45;;;;;;;2.53;2.33;;;28.70;71.10;;;;;;4857114;29;20144;-66
2022/09/05 11:28:24;;;;;;;3.25;2.10;;;28.70;70.90;;;;;;4862410;29;20075;-66
2022/09/05 11:30:54;;;;;;;2.75;2.08;;;28.80;69.20;;;;;;4864224;29;20061;-66
2022/09/05 11:33:49;;;;;;;2.80;2.20;;;28.90;69.00;;;;;;4863834;29;20492;-65
2022/09/05 11:36:23;;;;;;;3.45;2.10;;;29.00;66.60;;;;;;4863537;29;20057;-65
2022/09/05 11:39:28;;;;;;;3.38;2.08;;;29.00;66.40;;;;;;4863609;29;20060;-65
2022/09/05 11:42:01;;;;;;;5.15;2.63;;;29.10;66.40;;;;;;4853610;29;20066;-65
2022/09/05 11:44:39;;;;;;;2.63;2.30;;;28.90;66.10;;;;;;4853880;29;20057;-65
2022/09/05 11:47:07;;;;;;;3.55;2.42;;;28.70;67.20;;;;;;4838277;29;20078;-65
2022/09/05 11:49:41;;;;;;;2.63;2.25;;;28.60;67.80;;;;;;4852580;29;20125;-66
2022/09/05 11:52:20;;;;;;;2.78;2.35;;;28.40;68.50;;;;;;4847477;29;20155;-65
2022/09/05 11:55:14;;;;;;;2.60;2.30;;;28.50;67.40;;;;;;4862148;29;20080;-65
2022/09/05 11:58:08;;;;;;;4.30;2.38;;;28.60;65.60;;;;;;4845726;29;20058;-66
2022/09/05 12:01:01;;;;;;;2.35;2.10;;;28.70;66.10;;;;;;4849778;29;20092;-65
2022/09/05 12:03:57;;;;;;;2.40;2.20;;;28.90;65.90;;;;;;4853628;29;20100;-66
2022/09/05 12:06:47;;;;;;;2.38;2.10;;;29.00;62.70;;;;;;4857893;29;20061;-65
2022/09/05 12:09:46;;;;;;;2.40;2.17;;;29.00;62.80;;;;;;4863352;29;20061;-65
2022/09/05 12:12:23;;;;;;;2.08;1.98;;;28.80;63.80;;;;;;4854039;29;20444;-65
2022/09/05 12:15:20;;;;;;;2.72;2.17;;;28.70;64.10;;;;;;4844773;29;20056;-65
2022/09/05 12:18:02;;;;;;;2.53;2.10;;;28.50;63.10;;;;;;4828186;29;20065;-65
2022/09/05 12:20:50;;;;;;;2.20;2.00;;;28.40;63.90;;;;;;4850623;29;20056;-65
2022/09/05 12:23:42;;;;;;;2.60;2.40;;;28.40;66.10;;;;;;4845982;29;20058;-64
2022/09/05 12:26:19;;;;;;;2.47;2.22;;;28.30;65.00;;;;;;4843085;29;20057;-65
2022/09/05 12:28:56;;;;;;;2.60;2.30;;;28.40;65.90;;;;;;4844726;29;20209;-65
2022/09/05 12:31:38;;;;;;;4.35;2.53;;;28.50;66.60;;;;;;4844512;29;20062;-66
2022/09/05 12:34:09;;;;;;;4.82;2.83;;;28.60;63.80;;;;;;4836999;29;20062;-66
2022/09/05 12:36:42;;;;;;;;;;;28.70;64.60;;;;;;4852277;29;20052;-66
2022/09/05 12:39:34;;;;;;;3.70;2.30;;;28.70;64.90;;;;;;4852345;29;19924;-65
2022/09/05 12:42:13;;;;;;;3.25;2.40;;;28.80;64.70;;;;;;4852345;29;20058;-66
2022/09/05 12:44:57;;;;;;;3.83;2.45;;;28.90;63.90;;;;;;4851544;29;20049;-66
2022/09/05 12:47:25;;;;;;;2.72;2.10;;;29.10;64.10;;;;;;4853087;29;20064;-67
2022/09/05 12:50:05;;;;;;;3.25;2.08;;;29.20;62.90;;;;;;4840483;29;20555;-65
2022/09/05 12:52:32;;;;;;;2.60;2.40;;;29.20;62.30;;;;;;4861975;29;20513;-66
2022/09/05 12:55:10;;;;;;;4.30;2.50;;;29.20;63.30;;;;;;4862490;29;20125;-65
2022/09/05 12:57:40;;;;;;;6.40;2.20;;;29.20;62.90;;;;;;4845851;29;20058;-66
2022/09/05 13:00:16;;;;;;;2.53;2.33;;;29.20;62.60;;;;;;4843865;29;20058;-66
2022/09/05 13:02:49;;;;;;;2.83;2.38;;;29.10;62.90;;;;;;4853214;29;20093;-66
2022/09/05 13:05:18;;;;;;;3.55;2.67;;;28.80;63.70;;;;;;4858461;29;20087;-67
2022/09/05 13:07:47;;;;;;;3.60;2.42;;;28.70;65.40;;;;;;4859368;29;20096;-65
2022/09/05 13:10:21;;;;;;;3.88;2.33;;;28.50;65.80;;;;;;4851085;29;20130;-66
2022/09/05 13:12:53;;;;;;;4.18;2.60;;;28.40;65.30;;;;;;4834420;29;20050;-66
2022/09/05 13:15:26;;;;;;;2.60;2.40;;;28.30;65.90;;;;;;4845741;29;20057;-66
2022/09/05 13:18:06;;;;;;;4.10;2.50;;;28.30;64.50;;;;;;4845767;29;20132;-66
2022/09/05 13:20:49;;;;;;;2.72;2.42;;;28.40;64.10;;;;;;4862185;29;20129;-66
2022/09/05 13:23:22;;;;;;;2.55;2.30;;;28.50;63.50;;;;;;4859110;29;20061;-67
2022/09/05 13:26:11;;;;;;;2.55;2.35;;;28.60;65.30;;;;;;4853872;29;20451;-66
2022/09/05 13:28:50;;;;;;;7.35;2.83;;;28.50;64.60;;;;;;4853310;29;20065;-67
2022/09/05 13:31:39;;;;;;;7.25;2.70;;;28.50;64.60;;;;;;4844353;29;20053;-66
2022/09/05 13:34:15;;;;;;;2.67;2.47;;;28.50;65.20;;;;;;4861823;29;20061;-65
2022/09/05 13:36:50;;;;;;;2.65;2.45;;;28.60;63.80;;;;;;4836716;29;20050;-65
2022/09/05 13:39:21;;;;;;;3.70;2.60;;;28.70;63.00;;;;;;4851690;29;20138;-65
2022/09/05 13:41:53;;;;;;;2.67;2.42;;;28.70;62.20;;;;;;4843750;29;20053;-65
2022/09/05 13:44:24;;;;;;;4.13;2.53;;;28.70;62.00;;;;;;4855430;29;20117;-65
2022/09/05 13:47:05;;;;;;;5.25;2.42;;;28.70;62.70;;;;;;4859940;29;20065;-66
2022/09/05 13:49:35;;;;;;;;;;;28.80;61.40;;;;;;4862140;29;20053;-71
